sensor_id;sensor_type;location;lat;lon;timestamp;P1;durP1;ratioP1;P2;durP2;ratioP2
7169;SDS011;3626;42.656;23.312;2023-09-19T00:00:04;7.78;;;4.93;;
7169;SDS011;3626;42.656;23.312;2023-09-19T00:00:12;8.14;;;5.03;;
7169;SDS011;3626;42.656;23.312;2023-09-19T00:00:18;8.27;;;5.00;;
7169;SDS011;3626;42.656;23.312;2023-09-19T00:00:24;8.10;;;5.00;;
7169;SDS011;3626;42.656;23.312;2023-09-19T00:00:32;8.80;;;5.30;;
7169;SDS011;3626;42.656;23.312;2023-09-19T00:00:39;9.23;;;5.50;;
7169;SDS011;3626;42.656;23.312;2023-09-19T00:00:46;9.77;;;5.83;;
7169;SDS011;3626;42.656;23.312;2023-09-19T00:00:55;10.00;;;6.00;;
7169;SDS011;3626;42.656;23.312;2023-09-19T00:01:02;9.77;;;6.00;;
7169;SDS011;3626;42.656;23.312;2023-09-19T00:01:07;9.38;;;5.95;;
7169;SDS011;3626;42.656;23.312;2023-09-19T00:01:13;9.57;;;6.10;;
7169;SDS011;3626;42.656;23.312;2023-09-19T00:01:19;9.43;;;6.10;;
7169;SDS011;3626;42.656;23.312;2023-09-19T00:01:25;9.85;;;6.15;;
7169;SDS011;3626;42.656;23.312;2023-09-19T00:01:32;10.34;;;6.26;;
7169;SDS011;3626;42.656;23.312;2023-09-19T00:01:38;9.82;;;6.00;;
7169;SDS011;3626;42.656;23.312;2023-09-19T00:01:44;10.50;;;5.85;;
7169;SDS011;3626;42.656;23.312;2023-09-19T00:01:50;11.88;;;5.75;;
7169;SDS011;3626;42.656;23.312;2023-09-19T00:01:57;11.43;;;5.70;;
7169;SDS011;3626;42.656;23.312;2023-09-19T00:02:03;11.38;;;5.70;;
7169;SDS011;3626;42.656;23.312;2023-09-19T00:02:09;11.23;;;5.70;;
7169;SDS011;3626;42.656;23.312;2023-09-19T00:02:16;10.66;;;5.50;;
7169;SDS011;3626;42.656;23.312;2023-09-19T00:02:22;10.17;;;5.33;;
7169;SDS011;3626;42.656;23.312;2023-09-19T00:02:28;9.60;;;5.20;;
7169;SDS011;3626;42.656;23.312;2023-09-19T00:02:34;9.64;;;5.20;;
7169;SDS011;3626;42.656;23.312;2023-09-19T00:02:41;9.40;;;5.26;;
7169;SDS011;3626;42.656;23.312;2023-09-19T00:02:51;8.00;;;5.20;;
7169;SDS011;3626;42.656;23.312;2023-09-19T00:02:58;7.65;;;5.30;;
7169;SDS011;3626;42.656;23.312;2023-09-19T00:03:04;8.50;;;5.50;;
7169;SDS011;3626;42.656;23.312;2023-09-19T00:03:11;8.90;;;5.50;;
7169;SDS011;3626;42.656;23.312;2023-09-19T00:03:17;9.30;;;5.57;;
7169;SDS011;3626;42.656;23.312;2023-09-19T00:03:22;10.27;;;5.82;;
7169;SDS011;3626;42.656;23.312;2023-09-19T00:03:28;10.48;;;5.90;;
7169;SDS011;3626;42.656;23.312;2023-09-19T00:03:34;10.53;;;5.90;;
7169;SDS011;3626;42.656;23.312;2023-09-19T00:03:42;10.63;;;5.83;;
7169;SDS011;3626;42.656;23.312;2023-09-19T00:03:48;10.53;;;5.73;;
7169;SDS011;3626;42.656;23.312;2023-09-19T00:03:53;10.68;;;5.63;;
7169;SDS011;3626;42.656;23.312;2023-09-19T00:04:00;10.30;;;5.48;;
7169;SDS011;3626;42.656;23.312;2023-09-19T00:04:06;10.23;;;5.25;;
7169;SDS011;3626;42.656;23.312;2023-09-19T00:04:15;10.35;;;5.42;;
7169;SDS011;3626;42.656;23.312;2023-09-19T00:04:20;9.45;;;5.40;;
7169;SDS011;3626;42.656;23.312;2023-09-19T00:04:33;9.32;;;5.36;;
7169;SDS011;3626;42.656;23.312;2023-09-19T00:04:39;9.02;;;5.43;;
7169;SDS011;3626;42.656;23.312;2023-09-19T00:04:45;9.10;;;5.50;;
7169;SDS011;3626;42.656;23.312;2023-09-19T00:04:51;9.13;;;5.50;;
7169;SDS011;3626;42.656;23.312;2023-09-19T00:04:57;8.70;;;5.63;;
7169;SDS011;3626;42.656;23.312;2023-09-19T00:05:03;8.87;;;5.80;;
7169;SDS011;3626;42.656;23.312;2023-09-19T00:05:10;8.88;;;5.88;;
7169;SDS011;3626;42.656;23.312;2023-09-19T00:05:17;8.70;;;5.83;;
7169;SDS011;3626;42.656;23.312;2023-09-19T00:05:23;8.60;;;5.80;;
7169;SDS011;3626;42.656;23.312;2023-09-19T00:05:29;8.40;;;5.80;;
7169;SDS011;3626;42.656;23.312;2023-09-19T00:05:39;8.44;;;5.82;;
7169;SDS011;3626;42.656;23.312;2023-09-19T00:05:49;8.36;;;5.74;;
7169;SDS011;3626;42.656;23.312;2023-09-19T00:05:55;8.18;;;5.70;;
7169;SDS011;3626;42.656;23.312;2023-09-19T00:06:03;8.12;;;5.60;;
7169;SDS011;3626;42.656;23.312;2023-09-19T00:06:12;7.93;;;5.60;;
7169;SDS011;3626;42.656;23.312;2023-09-19T00:06:20;8.70;;;5.62;;
7169;SDS011;3626;42.656;23.312;2023-09-19T00:06:27;8.90;;;5.47;;
7169;SDS011;3626;42.656;23.312;2023-09-19T00:06:36;9.07;;;5.47;;
7169;SDS011;3626;42.656;23.312;2023-09-19T00:06:42;9.07;;;5.50;;
7169;SDS011;3626;42.656;23.312;2023-09-19T00:06:49;8.95;;;5.45;;
7169;SDS011;3626;42.656;23.312;2023-09-19T00:06:55;8.85;;;5.32;;
7169;SDS011;3626;42.656;23.312;2023-09-19T00:07:02;8.64;;;5.30;;
7169;SDS011;3626;42.656;23.312;2023-09-19T00:07:09;8.90;;;5.20;;
7169;SDS011;3626;42.656;23.312;2023-09-19T00:07:14;8.68;;;5.05;;
7169;SDS011;3626;42.656;23.312;2023-09-19T00:07:21;7.90;;;5.00;;
7169;SDS011;3626;42.656;23.312;2023-09-19T00:07:27;7.70;;;5.07;;
7169;SDS011;3626;42.656;23.312;2023-09-19T00:07:33;7.65;;;5.05;;
7169;SDS011;3626;42.656;23.312;2023-09-19T00:07:41;7.20;;;5.00;;
7169;SDS011;3626;42.656;23.312;2023-09-19T00:07:47;7.28;;;5.00;;
7169;SDS011;3626;42.656;23.312;2023-09-19T00:07:53;7.67;;;5.10;;
7169;SDS011;3626;42.656;23.312;2023-09-19T00:08:00;7.97;;;5.20;;
7169;SDS011;3626;42.656;23.312;2023-09-19T00:08:06;7.53;;;5.20;;
7169;SDS011;3626;42.656;23.312;2023-09-19T00:08:12;7.38;;;5.20;;
7169;SDS011;3626;42.656;23.312;2023-09-19T00:08:18;7.53;;;5.17;;
7169;SDS011;3626;42.656;23.312;2023-09-19T00:08:28;7.84;;;5.24;;
7169;SDS011;3626;42.656;23.312;2023-09-19T00:08:34;9.40;;;5.30;;
7169;SDS011;3626;42.656;23.312;2023-09-19T00:08:39;9.82;;;5.30;;
7169;SDS011;3626;42.656;23.312;2023-09-19T00:08:45;10.00;;;5.47;;
7169;SDS011;3626;42.656;23.312;2023-09-19T00:08:52;9.60;;;5.50;;
7169;SDS011;3626;42.656;23.312;2023-09-19T00:08:59;9.40;;;5.40;;
7169;SDS011;3626;42.656;23.312;2023-09-19T00:09:05;9.85;;;5.38;;
7169;SDS011;3626;42.656;23.312;2023-09-19T00:09:15;10.65;;;5.45;;
7169;SDS011;3626;42.656;23.312;2023-09-19T00:09:21;11.83;;;5.50;;
7169;SDS011;3626;42.656;23.312;2023-09-19T00:09:31;11.86;;;5.47;;
7169;SDS011;3626;42.656;23.312;2023-09-19T00:09:43;10.84;;;5.70;;
7169;SDS011;3626;42.656;23.312;2023-09-19T00:09:49;10.80;;;5.76;;
7169;SDS011;3626;42.656;23.312;2023-09-19T00:09:54;10.68;;;5.65;;
7169;SDS011;3626;42.656;23.312;2023-09-19T00:10:00;11.25;;;5.70;;
7169;SDS011;3626;42.656;23.312;2023-09-19T00:10:06;11.13;;;5.70;;
7169;SDS011;3626;42.656;23.312;2023-09-19T00:10:14;10.53;;;5.70;;
7169;SDS011;3626;42.656;23.312;2023-09-19T00:10:22;9.82;;;5.78;;
7169;SDS011;3626;42.656;23.312;2023-09-19T00:10:29;9.80;;;5.47;;
7169;SDS011;3626;42.656;23.312;2023-09-19T00:10:36;10.13;;;5.50;;
7169;SDS011;3626;42.656;23.312;2023-09-19T00:10:41;9.93;;;5.35;;
7169;SDS011;3626;42.656;23.312;2023-09-19T00:10:47;9.93;;;5.20;;
7169;SDS011;3626;42.656;23.312;2023-09-19T00:10:53;10.23;;;5.28;;
7169;SDS011;3626;42.656;23.312;2023-09-19T00:11:00;10.27;;;5.32;;
7169;SDS011;3626;42.656;23.312;2023-09-19T00:11:11;9.73;;;5.44;;
7169;SDS011;3626;42.656;23.312;2023-09-19T00:11:17;9.90;;;5.63;;
7169;SDS011;3626;42.656;23.312;2023-09-19T00:11:22;10.05;;;5.70;;
7169;SDS011;3626;42.656;23.312;2023-09-19T00:11:31;9.73;;;5.80;;
7169;SDS011;3626;42.656;23.312;2023-09-19T00:11:40;9.50;;;5.60;;
7169;SDS011;3626;42.656;23.312;2023-09-19T00:11:46;9.70;;;5.73;;
7169;SDS011;3626;42.656;23.312;2023-09-19T00:11:54;9.97;;;5.80;;
7169;SDS011;3626;42.656;23.312;2023-09-19T00:11:59;9.77;;;5.80;;
7169;SDS011;3626;42.656;23.312;2023-09-19T00:12:06;9.77;;;5.70;;
7169;SDS011;3626;42.656;23.312;2023-09-19T00:12:14;9.82;;;5.60;;
7169;SDS011;3626;42.656;23.312;2023-09-19T00:12:20;9.52;;;5.47;;
7169;SDS011;3626;42.656;23.312;2023-09-19T00:12:25;10.00;;;5.45;;
7169;SDS011;3626;42.656;23.312;2023-09-19T00:12:32;9.73;;;5.60;;
7169;SDS011;3626;42.656;23.312;2023-09-19T00:12:39;9.77;;;5.83;;
7169;SDS011;3626;42.656;23.312;2023-09-19T00:12:48;9.74;;;5.81;;
7169;SDS011;3626;42.656;23.312;2023-09-19T00:12:54;9.32;;;5.63;;
7169;SDS011;3626;42.656;23.312;2023-09-19T00:13:00;8.84;;;5.52;;
7169;SDS011;3626;42.656;23.312;2023-09-19T00:13:09;8.89;;;5.60;;
7169;SDS011;3626;42.656;23.312;2023-09-19T00:13:18;8.63;;;5.63;;
7169;SDS011;3626;42.656;23.312;2023-09-19T00:13:24;8.77;;;5.70;;
7169;SDS011;3626;42.656;23.312;2023-09-19T00:13:30;8.65;;;5.80;;
7169;SDS011;3626;42.656;23.312;2023-09-19T00:13:36;8.85;;;5.57;;
7169;SDS011;3626;42.656;23.312;2023-09-19T00:13:41;8.68;;;5.50;;
7169;SDS011;3626;42.656;23.312;2023-09-19T00:13:48;9.70;;;5.67;;
7169;SDS011;3626;42.656;23.312;2023-09-19T00:13:55;10.23;;;5.70;;
7169;SDS011;3626;42.656;23.312;2023-09-19T00:14:02;11.13;;;5.87;;
7169;SDS011;3626;42.656;23.312;2023-09-19T00:14:07;11.13;;;5.90;;
7169;SDS011;3626;42.656;23.312;2023-09-19T00:14:14;11.10;;;5.85;;
7169;SDS011;3626;42.656;23.312;2023-09-19T00:14:19;11.55;;;5.68;;
7169;SDS011;3626;42.656;23.312;2023-09-19T00:14:25;11.35;;;5.57;;
7169;SDS011;3626;42.656;23.312;2023-09-19T00:14:31;10.67;;;5.50;;
7169;SDS011;3626;42.656;23.312;2023-09-19T00:14:39;10.45;;;5.42;;
7169;SDS011;3626;42.656;23.312;2023-09-19T00:14:45;10.77;;;5.40;;
7169;SDS011;3626;42.656;23.312;2023-09-19T00:14:51;9.63;;;5.33;;
7169;SDS011;3626;42.656;23.312;2023-09-19T00:14:57;9.18;;;5.34;;
7169;SDS011;3626;42.656;23.312;2023-09-19T00:15:06;8.68;;;5.22;;
7169;SDS011;3626;42.656;23.312;2023-09-19T00:15:12;8.90;;;5.40;;
7169;SDS011;3626;42.656;23.312;2023-09-19T00:15:18;8.23;;;5.45;;
7169;SDS011;3626;42.656;23.312;2023-09-19T00:15:24;8.10;;;5.43;;
7169;SDS011;3626;42.656;23.312;2023-09-19T00:15:31;8.10;;;5.36;;
7169;SDS011;3626;42.656;23.312;2023-09-19T00:15:43;7.97;;;5.31;;
7169;SDS011;3626;42.656;23.312;2023-09-19T00:15:53;7.33;;;5.33;;
7169;SDS011;3626;42.656;23.312;2023-09-19T00:16:00;7.40;;;5.40;;
7169;SDS011;3626;42.656;23.312;2023-09-19T00:16:07;7.33;;;5.40;;
7169;SDS011;3626;42.656;23.312;2023-09-19T00:16:15;6.78;;;5.05;;
7169;SDS011;3626;42.656;23.312;2023-09-19T00:16:24;6.77;;;5.00;;
7169;SDS011;3626;42.656;23.312;2023-09-19T00:16:30;7.10;;;5.20;;
7169;SDS011;3626;42.656;23.312;2023-09-19T00:16:37;7.50;;;5.30;;
7169;SDS011;3626;42.656;23.312;2023-09-19T00:16:44;7.75;;;5.38;;
7169;SDS011;3626;42.656;23.312;2023-09-19T00:16:52;8.83;;;5.40;;
7169;SDS011;3626;42.656;23.312;2023-09-19T00:16:59;9.08;;;5.40;;
7169;SDS011;3626;42.656;23.312;2023-09-19T00:17:05;9.30;;;5.40;;
7169;SDS011;3626;42.656;23.312;2023-09-19T00:17:13;9.60;;;5.54;;
7169;SDS011;3626;42.656;23.312;2023-09-19T00:17:18;9.82;;;5.68;;
7169;SDS011;3626;42.656;23.312;2023-09-19T00:17:24;9.82;;;5.63;;
7169;SDS011;3626;42.656;23.312;2023-09-19T00:17:30;9.93;;;5.50;;
7169;SDS011;3626;42.656;23.312;2023-09-19T00:17:37;9.98;;;5.44;;
7169;SDS011;3626;42.656;23.312;2023-09-19T00:17:45;9.99;;;5.47;;
7169;SDS011;3626;42.656;23.312;2023-09-19T00:17:52;9.90;;;5.48;;
7169;SDS011;3626;42.656;23.312;2023-09-19T00:17:58;10.00;;;5.30;;
7169;SDS011;3626;42.656;23.312;2023-09-19T00:18:04;9.82;;;5.30;;
7169;SDS011;3626;42.656;23.312;2023-09-19T00:18:11;9.96;;;5.34;;
7169;SDS011;3626;42.656;23.312;2023-09-19T00:18:18;9.83;;;5.30;;
7169;SDS011;3626;42.656;23.312;2023-09-19T00:18:26;9.70;;;5.33;;
7169;SDS011;3626;42.656;23.312;2023-09-19T00:18:37;9.03;;;5.40;;
7169;SDS011;3626;42.656;23.312;2023-09-19T00:18:43;8.90;;;5.30;;
7169;SDS011;3626;42.656;23.312;2023-09-19T00:18:49;8.57;;;5.30;;
7169;SDS011;3626;42.656;23.312;2023-09-19T00:18:54;7.78;;;5.32;;
7169;SDS011;3626;42.656;23.312;2023-09-19T00:19:00;7.70;;;5.40;;
7169;SDS011;3626;42.656;23.312;2023-09-19T00:19:06;7.82;;;5.43;;
7169;SDS011;3626;42.656;23.312;2023-09-19T00:19:12;7.90;;;5.40;;
7169;SDS011;3626;42.656;23.312;2023-09-19T00:19:19;8.10;;;5.40;;
7169;SDS011;3626;42.656;23.312;2023-09-19T00:19:25;7.70;;;5.37;;
7169;SDS011;3626;42.656;23.312;2023-09-19T00:19:31;7.50;;;5.38;;
7169;SDS011;3626;42.656;23.312;2023-09-19T00:19:37;7.50;;;5.40;;
7169;SDS011;3626;42.656;23.312;2023-09-19T00:19:43;7.63;;;5.30;;
7169;SDS011;3626;42.656;23.312;2023-09-19T00:19:51;7.42;;;5.20;;
7169;SDS011;3626;42.656;23.312;2023-09-19T00:19:57;7.38;;;5.20;;
7169;SDS011;3626;42.656;23.312;2023-09-19T00:20:03;8.23;;;5.40;;
7169;SDS011;3626;42.656;23.312;2023-09-19T00:20:12;8.70;;;5.60;;
7169;SDS011;3626;42.656;23.312;2023-09-19T00:20:18;8.65;;;5.65;;
7169;SDS011;3626;42.656;23.312;2023-09-19T00:20:24;9.15;;;5.72;;
7169;SDS011;3626;42.656;23.312;2023-09-19T00:20:29;10.10;;;5.80;;
7169;SDS011;3626;42.656;23.312;2023-09-19T00:20:35;10.70;;;5.80;;
7169;SDS011;3626;42.656;23.312;2023-09-19T00:20:41;10.66;;;5.76;;
7169;SDS011;3626;42.656;23.312;2023-09-19T00:20:47;10.40;;;5.67;;
7169;SDS011;3626;42.656;23.312;2023-09-19T00:20:56;10.77;;;5.70;;
7169;SDS011;3626;42.656;23.312;2023-09-19T00:21:02;10.12;;;5.47;;
7169;SDS011;3626;42.656;23.312;2023-09-19T00:21:09;9.27;;;5.32;;
7169;SDS011;3626;42.656;23.312;2023-09-19T00:21:15;9.07;;;5.10;;
7169;SDS011;3626;42.656;23.312;2023-09-19T00:21:21;9.20;;;5.10;;
7169;SDS011;3626;42.656;23.312;2023-09-19T00:21:28;9.10;;;5.20;;
7169;SDS011;3626;42.656;23.312;2023-09-19T00:21:33;8.90;;;5.10;;
7169;SDS011;3626;42.656;23.312;2023-09-19T00:21:39;8.90;;;5.13;;
7169;SDS011;3626;42.656;23.312;2023-09-19T00:21:46;9.12;;;5.30;;
7169;SDS011;3626;42.656;23.312;2023-09-19T00:21:52;9.30;;;5.50;;
7169;SDS011;3626;42.656;23.312;2023-09-19T00:21:58;9.73;;;5.80;;
7169;SDS011;3626;42.656;23.312;2023-09-19T00:22:04;9.83;;;5.80;;
7169;SDS011;3626;42.656;23.312;2023-09-19T00:22:10;10.05;;;5.82;;
7169;SDS011;3626;42.656;23.312;2023-09-19T00:22:15;10.57;;;6.07;;
7169;SDS011;3626;42.656;23.312;2023-09-19T00:22:24;10.38;;;6.00;;
7169;SDS011;3626;42.656;23.312;2023-09-19T00:22:31;9.50;;;5.97;;
7169;SDS011;3626;42.656;23.312;2023-09-19T00:22:38;9.25;;;6.05;;
7169;SDS011;3626;42.656;23.312;2023-09-19T00:22:45;9.35;;;6.03;;
7169;SDS011;3626;42.656;23.312;2023-09-19T00:22:50;9.07;;;5.93;;
7169;SDS011;3626;42.656;23.312;2023-09-19T00:22:57;8.70;;;5.83;;
7169;SDS011;3626;42.656;23.312;2023-09-19T00:23:10;8.27;;;5.66;;
7169;SDS011;3626;42.656;23.312;2023-09-19T00:23:16;7.65;;;5.40;;
7169;SDS011;3626;42.656;23.312;2023-09-19T00:23:24;7.97;;;5.27;;
7169;SDS011;3626;42.656;23.312;2023-09-19T00:23:29;7.97;;;5.22;;
7169;SDS011;3626;42.656;23.312;2023-09-19T00:23:36;8.10;;;5.17;;
7169;SDS011;3626;42.656;23.312;2023-09-19T00:23:42;7.80;;;5.10;;
7169;SDS011;3626;42.656;23.312;2023-09-19T00:23:47;8.02;;;5.28;;
7169;SDS011;3626;42.656;23.312;2023-09-19T00:23:54;8.00;;;5.20;;
7169;SDS011;3626;42.656;23.312;2023-09-19T00:24:00;8.30;;;5.37;;
7169;SDS011;3626;42.656;23.312;2023-09-19T00:24:06;8.95;;;5.50;;
7169;SDS011;3626;42.656;23.312;2023-09-19T00:24:12;9.00;;;5.50;;
7169;SDS011;3626;42.656;23.312;2023-09-19T00:24:19;8.43;;;5.50;;
7169;SDS011;3626;42.656;23.312;2023-09-19T00:24:24;7.82;;;5.50;;
7169;SDS011;3626;42.656;23.312;2023-09-19T00:24:30;7.77;;;5.47;;
7169;SDS011;3626;42.656;23.312;2023-09-19T00:24:36;7.50;;;5.30;;
7169;SDS011;3626;42.656;23.312;2023-09-19T00:24:41;7.47;;;5.32;;
7169;SDS011;3626;42.656;23.312;2023-09-19T00:24:49;7.60;;;5.32;;
7169;SDS011;3626;42.656;23.312;2023-09-19T00:24:56;8.20;;;5.38;;
7169;SDS011;3626;42.656;23.312;2023-09-19T00:25:01;8.23;;;5.20;;
7169;SDS011;3626;42.656;23.312;2023-09-19T00:25:09;7.83;;;5.20;;
7169;SDS011;3626;42.656;23.312;2023-09-19T00:25:16;9.27;;;5.43;;
7169;SDS011;3626;42.656;23.312;2023-09-19T00:25:22;10.67;;;5.67;;
7169;SDS011;3626;42.656;23.312;2023-09-19T00:25:28;10.80;;;5.63;;
7169;SDS011;3626;42.656;23.312;2023-09-19T00:25:33;10.77;;;5.60;;
7169;SDS011;3626;42.656;23.312;2023-09-19T00:25:40;10.88;;;5.63;;
7169;SDS011;3626;42.656;23.312;2023-09-19T00:25:47;10.62;;;5.40;;
7169;SDS011;3626;42.656;23.312;2023-09-19T00:25:52;10.20;;;5.23;;
7169;SDS011;3626;42.656;23.312;2023-09-19T00:26:02;10.87;;;5.13;;
7169;SDS011;3626;42.656;23.312;2023-09-19T00:26:09;11.13;;;5.03;;
7169;SDS011;3626;42.656;23.312;2023-09-19T00:26:14;10.40;;;4.90;;
7169;SDS011;3626;42.656;23.312;2023-09-19T00:26:20;8.65;;;4.70;;
7169;SDS011;3626;42.656;23.312;2023-09-19T00:26:26;8.35;;;4.60;;
7169;SDS011;3626;42.656;23.312;2023-09-19T00:26:35;8.27;;;4.57;;
7169;SDS011;3626;42.656;23.312;2023-09-19T00:26:43;8.40;;;4.63;;
7169;SDS011;3626;42.656;23.312;2023-09-19T00:26:49;8.65;;;4.70;;
7169;SDS011;3626;42.656;23.312;2023-09-19T00:26:54;8.80;;;4.80;;
7169;SDS011;3626;42.656;23.312;2023-09-19T00:27:00;7.17;;;4.70;;
7169;SDS011;3626;42.656;23.312;2023-09-19T00:27:06;7.10;;;4.83;;
7169;SDS011;3626;42.656;23.312;2023-09-19T00:27:13;7.20;;;4.90;;
7169;SDS011;3626;42.656;23.312;2023-09-19T00:27:19;7.10;;;4.78;;
7169;SDS011;3626;42.656;23.312;2023-09-19T00:27:24;7.00;;;4.70;;
7169;SDS011;3626;42.656;23.312;2023-09-19T00:27:30;6.90;;;4.60;;
7169;SDS011;3626;42.656;23.312;2023-09-19T00:27:36;7.15;;;4.72;;
7169;SDS011;3626;42.656;23.312;2023-09-19T00:27:45;7.61;;;4.73;;
7169;SDS011;3626;42.656;23.312;2023-09-19T00:27:52;7.30;;;4.80;;
7169;SDS011;3626;42.656;23.312;2023-09-19T00:27:59;7.40;;;4.90;;
7169;SDS011;3626;42.656;23.312;2023-09-19T00:28:05;7.30;;;4.80;;
7169;SDS011;3626;42.656;23.312;2023-09-19T00:28:12;7.18;;;4.82;;
7169;SDS011;3626;42.656;23.312;2023-09-19T00:28:18;7.38;;;4.93;;
7169;SDS011;3626;42.656;23.312;2023-09-19T00:28:24;7.70;;;5.10;;
7169;SDS011;3626;42.656;23.312;2023-09-19T00:28:31;7.82;;;5.24;;
7169;SDS011;3626;42.656;23.312;2023-09-19T00:28:37;7.70;;;5.28;;
7169;SDS011;3626;42.656;23.312;2023-09-19T00:28:42;7.55;;;5.38;;
7169;SDS011;3626;42.656;23.312;2023-09-19T00:28:48;8.00;;;5.20;;
7169;SDS011;3626;42.656;23.312;2023-09-19T00:28:57;9.11;;;5.30;;
7169;SDS011;3626;42.656;23.312;2023-09-19T00:29:09;9.55;;;5.26;;
7169;SDS011;3626;42.656;23.312;2023-09-19T00:29:16;9.30;;;5.10;;
7169;SDS011;3626;42.656;23.312;2023-09-19T00:29:21;9.33;;;5.10;;
7169;SDS011;3626;42.656;23.312;2023-09-19T00:29:28;10.08;;;5.10;;
7169;SDS011;3626;42.656;23.312;2023-09-19T00:29:36;10.23;;;5.20;;
7169;SDS011;3626;42.656;23.312;2023-09-19T00:29:42;10.27;;;5.10;;
7169;SDS011;3626;42.656;23.312;2023-09-19T00:29:48;9.90;;;5.10;;
7169;SDS011;3626;42.656;23.312;2023-09-19T00:29:53;9.43;;;5.10;;
7169;SDS011;3626;42.656;23.312;2023-09-19T00:29:59;8.57;;;5.07;;
7169;SDS011;3626;42.656;23.312;2023-09-19T00:30:06;8.52;;;5.00;;
7169;SDS011;3626;42.656;23.312;2023-09-19T00:30:14;8.83;;;5.20;;
7169;SDS011;3626;42.656;23.312;2023-09-19T00:30:20;9.04;;;5.30;;
7169;SDS011;3626;42.656;23.312;2023-09-19T00:30:26;8.37;;;5.23;;
7169;SDS011;3626;42.656;23.312;2023-09-19T00:30:32;8.30;;;5.32;;
7169;SDS011;3626;42.656;23.312;2023-09-19T00:30:38;8.20;;;5.30;;
7169;SDS011;3626;42.656;23.312;2023-09-19T00:30:44;7.90;;;5.40;;
7169;SDS011;3626;42.656;23.312;2023-09-19T00:30:54;8.10;;;5.40;;
7169;SDS011;3626;42.656;23.312;2023-09-19T00:31:00;8.20;;;5.47;;
7169;SDS011;3626;42.656;23.312;2023-09-19T00:31:07;7.80;;;5.47;;
7169;SDS011;3626;42.656;23.312;2023-09-19T00:31:13;7.30;;;5.27;;
7169;SDS011;3626;42.656;23.312;2023-09-19T00:31:19;7.03;;;5.20;;
7169;SDS011;3626;42.656;23.312;2023-09-19T00:31:25;7.25;;;5.20;;
7169;SDS011;3626;42.656;23.312;2023-09-19T00:31:30;7.20;;;5.20;;
7169;SDS011;3626;42.656;23.312;2023-09-19T00:31:36;7.72;;;5.38;;
7169;SDS011;3626;42.656;23.312;2023-09-19T00:31:43;8.20;;;5.45;;
7169;SDS011;3626;42.656;23.312;2023-09-19T00:31:48;8.95;;;5.55;;
7169;SDS011;3626;42.656;23.312;2023-09-19T00:31:55;8.86;;;5.60;;
7169;SDS011;3626;42.656;23.312;2023-09-19T00:32:01;8.93;;;5.57;;
7169;SDS011;3626;42.656;23.312;2023-09-19T00:32:08;9.42;;;5.80;;
7169;SDS011;3626;42.656;23.312;2023-09-19T00:32:14;9.90;;;6.00;;
7169;SDS011;3626;42.656;23.312;2023-09-19T00:32:21;10.28;;;6.10;;
7169;SDS011;3626;42.656;23.312;2023-09-19T00:32:26;10.17;;;6.20;;
7169;SDS011;3626;42.656;23.312;2023-09-19T00:32:36;10.02;;;5.97;;
7169;SDS011;3626;42.656;23.312;2023-09-19T00:32:42;9.98;;;5.95;;
7169;SDS011;3626;42.656;23.312;2023-09-19T00:32:48;10.20;;;5.80;;
7169;SDS011;3626;42.656;23.312;2023-09-19T00:32:59;10.24;;;5.63;;
7169;SDS011;3626;42.656;23.312;2023-09-19T00:33:06;10.30;;;5.50;;
7169;SDS011;3626;42.656;23.312;2023-09-19T00:33:12;10.20;;;5.47;;
7169;SDS011;3626;42.656;23.312;2023-09-19T00:33:21;9.71;;;5.26;;
7169;SDS011;3626;42.656;23.312;2023-09-19T00:33:27;9.65;;;5.10;;
7169;SDS011;3626;42.656;23.312;2023-09-19T00:33:34;9.86;;;5.06;;
7169;SDS011;3626;42.656;23.312;2023-09-19T00:33:40;9.70;;;5.05;;
7169;SDS011;3626;42.656;23.312;2023-09-19T00:33:45;9.17;;;5.27;;
7169;SDS011;3626;42.656;23.312;2023-09-19T00:33:53;8.70;;;5.30;;
7169;SDS011;3626;42.656;23.312;2023-09-19T00:33:59;8.23;;;5.40;;
7169;SDS011;3626;42.656;23.312;2023-09-19T00:34:11;8.50;;;5.41;;
7169;SDS011;3626;42.656;23.312;2023-09-19T00:34:19;8.70;;;5.43;;
7169;SDS011;3626;42.656;23.312;2023-09-19T00:34:25;8.75;;;5.53;;
7169;SDS011;3626;42.656;23.312;2023-09-19T00:34:33;9.10;;;5.80;;
7169;SDS011;3626;42.656;23.312;2023-09-19T00:34:39;9.07;;;5.70;;
7169;SDS011;3626;42.656;23.312;2023-09-19T00:34:45;8.88;;;5.55;;
7169;SDS011;3626;42.656;23.312;2023-09-19T00:34:50;9.10;;;5.60;;
7169;SDS011;3626;42.656;23.312;2023-09-19T00:34:56;9.20;;;5.60;;
7169;SDS011;3626;42.656;23.312;2023-09-19T00:35:02;9.07;;;5.57;;
7169;SDS011;3626;42.656;23.312;2023-09-19T00:35:08;8.70;;;5.50;;
7169;SDS011;3626;42.656;23.312;2023-09-19T00:35:15;8.80;;;5.50;;
7169;SDS011;3626;42.656;23.312;2023-09-19T00:35:21;8.63;;;5.50;;
7169;SDS011;3626;42.656;23.312;2023-09-19T00:35:28;8.50;;;5.33;;
7169;SDS011;3626;42.656;23.312;2023-09-19T00:35:34;7.90;;;5.30;;
7169;SDS011;3626;42.656;23.312;2023-09-19T00:35:46;8.44;;;5.30;;
7169;SDS011;3626;42.656;23.312;2023-09-19T00:35:53;8.27;;;5.22;;
7169;SDS011;3626;42.656;23.312;2023-09-19T00:36:00;8.28;;;5.23;;
7169;SDS011;3626;42.656;23.312;2023-09-19T00:36:09;8.20;;;5.40;;
7169;SDS011;3626;42.656;23.312;2023-09-19T00:36:15;8.02;;;5.35;;
7169;SDS011;3626;42.656;23.312;2023-09-19T00:36:20;8.23;;;5.40;;
7169;SDS011;3626;42.656;23.312;2023-09-19T00:36:26;8.05;;;5.28;;
7169;SDS011;3626;42.656;23.312;2023-09-19T00:36:32;7.88;;;5.22;;
7169;SDS011;3626;42.656;23.312;2023-09-19T00:36:38;7.93;;;5.28;;
7169;SDS011;3626;42.656;23.312;2023-09-19T00:36:45;7.17;;;5.23;;
7169;SDS011;3626;42.656;23.312;2023-09-19T00:36:50;7.83;;;5.50;;
7169;SDS011;3626;42.656;23.312;2023-09-19T00:36:58;7.82;;;5.48;;
7169;SDS011;3626;42.656;23.312;2023-09-19T00:37:04;7.73;;;5.37;;
7169;SDS011;3626;42.656;23.312;2023-09-19T00:37:10;8.07;;;5.40;;
7169;SDS011;3626;42.656;23.312;2023-09-19T00:37:16;8.50;;;5.50;;
7169;SDS011;3626;42.656;23.312;2023-09-19T00:37:23;8.50;;;5.56;;
7169;SDS011;3626;42.656;23.312;2023-09-19T00:37:29;8.75;;;5.72;;
7169;SDS011;3626;42.656;23.312;2023-09-19T00:37:35;8.82;;;5.70;;
7169;SDS011;3626;42.656;23.312;2023-09-19T00:37:41;9.20;;;5.70;;
7169;SDS011;3626;42.656;23.312;2023-09-19T00:37:47;9.32;;;5.78;;
7169;SDS011;3626;42.656;23.312;2023-09-19T00:37:53;9.05;;;5.78;;
7169;SDS011;3626;42.656;23.312;2023-09-19T00:37:59;8.93;;;5.75;;
7169;SDS011;3626;42.656;23.312;2023-09-19T00:38:04;8.57;;;5.60;;
7169;SDS011;3626;42.656;23.312;2023-09-19T00:38:12;8.25;;;5.58;;
7169;SDS011;3626;42.656;23.312;2023-09-19T00:38:21;7.83;;;5.53;;
7169;SDS011;3626;42.656;23.312;2023-09-19T00:38:29;7.80;;;5.56;;
7169;SDS011;3626;42.656;23.312;2023-09-19T00:38:37;7.16;;;5.32;;
7169;SDS011;3626;42.656;23.312;2023-09-19T00:38:42;7.07;;;5.28;;
7169;SDS011;3626;42.656;23.312;2023-09-19T00:38:49;6.70;;;5.07;;
7169;SDS011;3626;42.656;23.312;2023-09-19T00:38:55;6.38;;;4.80;;
7169;SDS011;3626;42.656;23.312;2023-09-19T00:39:01;6.72;;;4.88;;
7169;SDS011;3626;42.656;23.312;2023-09-19T00:39:09;7.25;;;5.00;;
7169;SDS011;3626;42.656;23.312;2023-09-19T00:39:15;7.97;;;5.07;;
7169;SDS011;3626;42.656;23.312;2023-09-19T00:39:21;8.32;;;5.10;;
7169;SDS011;3626;42.656;23.312;2023-09-19T00:39:27;8.68;;;5.15;;
7169;SDS011;3626;42.656;23.312;2023-09-19T00:39:33;9.23;;;5.40;;
7169;SDS011;3626;42.656;23.312;2023-09-19T00:39:38;9.17;;;5.40;;
7169;SDS011;3626;42.656;23.312;2023-09-19T00:39:46;8.93;;;5.40;;
7169;SDS011;3626;42.656;23.312;2023-09-19T00:39:53;9.07;;;5.40;;
7169;SDS011;3626;42.656;23.312;2023-09-19T00:39:58;9.52;;;5.60;;
7169;SDS011;3626;42.656;23.312;2023-09-19T00:40:04;10.15;;;5.57;;
7169;SDS011;3626;42.656;23.312;2023-09-19T00:40:12;9.95;;;5.28;;
7169;SDS011;3626;42.656;23.312;2023-09-19T00:40:18;9.27;;;5.13;;
7169;SDS011;3626;42.656;23.312;2023-09-19T00:40:26;9.46;;;5.07;;
7169;SDS011;3626;42.656;23.312;2023-09-19T00:40:32;9.80;;;4.90;;
7169;SDS011;3626;42.656;23.312;2023-09-19T00:40:38;10.80;;;5.00;;
7169;SDS011;3626;42.656;23.312;2023-09-19T00:40:49;10.74;;;4.91;;
7169;SDS011;3626;42.656;23.312;2023-09-19T00:40:55;10.60;;;4.90;;
7169;SDS011;3626;42.656;23.312;2023-09-19T00:41:02;10.00;;;4.80;;